Time;durP1;ratioP1;P1;durP2;ratioP2;P2;SDS_P1;SDS_P2;PMS_P1;PMS_P2;Temp;Humidity;BMP_temperature;BMP_pressure;BME280_temperature;BME280_humidity;BME280_pressure;Samples;Min_cycle;Max_cycle;Signal;HPM_P1;HPM_P2
2023/11/07 00:02:23;;;;;;;0.70;0.70;;;7.50;99.90;;;;;;5020855;28;20049;-37
2023/11/07 00:04:49;;;;;;;;;;;7.40;99.90;;;;;;5020155;28;20038;-35
2023/11/07 00:07:14;;;;;;;0.70;0.70;;;7.40;99.90;;;;;;5024055;28;19916;-33
2023/11/07 00:09:40;;;;;;;0.90;0.90;;;7.40;99.90;;;;;;5022107;28;20033;-36
2023/11/07 00:12:06;;;;;;;0.80;0.80;;;7.40;99.90;;;;;;5019996;28;20112;-32
2023/11/07 00:14:32;;;;;;;1.00;0.80;;;7.30;99.90;;;;;;5027195;28;20021;-39
2023/11/07 00:16:58;;;;;;;0.80;0.80;;;7.30;99.90;;;;;;5023792;28;20026;-39
2023/11/07 00:19:24;;;;;;;1.02;1.02;;;7.30;99.90;;;;;;5030456;28;20030;-39
2023/11/07 00:21:50;;;;;;;0.90;0.90;;;7.20;99.90;;;;;;5033922;28;20038;-39
2023/11/07 00:24:15;;;;;;;1.00;0.80;;;7.20;99.90;;;;;;5027792;28;20502;-37
2023/11/07 00:26:41;;;;;;;0.70;0.70;;;7.20;99.90;;;;;;5030107;28;20037;-36
2023/11/07 00:29:11;;;;;;;0.80;0.80;;;7.20;99.90;;;;;;5030136;28;20037;-39
2023/11/07 00:31:37;;;;;;;0.80;0.80;;;7.10;99.90;;;;;;5029478;28;20037;-40
2023/11/07 00:34:03;;;;;;;0.80;0.80;;;7.10;99.90;;;;;;5034384;28;20032;-39
2023/11/07 00:36:28;;;;;;;0.80;0.80;;;7.10;99.90;;;;;;5025478;28;20040;-40
2023/11/07 00:38:54;;;;;;;0.80;0.80;;;7.20;99.90;;;;;;5035693;28;20024;-41
2023/11/07 00:41:20;;;;;;;0.60;0.60;;;7.10;99.90;;;;;;5027596;28;20219;-39
2023/11/07 00:43:48;;;;;;;1.13;0.73;;;7.10;99.90;;;;;;5014256;28;20049;-37
2023/11/07 00:46:13;;;;;;;0.70;0.70;;;7.20;99.90;;;;;;5013099;28;20051;-36
2023/11/07 00:48:39;;;;;;;1.55;0.60;;;7.20;99.90;;;;;;5018108;28;20075;-39
2023/11/07 00:51:05;;;;;;;0.77;0.77;;;7.10;99.90;;;;;;5005535;28;20029;-40
2023/11/07 00:53:30;;;;;;;0.70;0.70;;;7.20;99.90;;;;;;5011532;28;20471;-39
2023/11/07 00:55:56;;;;;;;1.10;0.70;;;7.20;99.90;;;;;;5014236;28;20037;-37
2023/11/07 00:58:22;;;;;;;0.70;0.70;;;7.10;99.90;;;;;;5010229;28;20044;-40
2023/11/07 01:00:47;;;;;;;0.80;0.80;;;7.10;99.90;;;;;;5012999;28;20041;-38
2023/11/07 01:03:13;;;;;;;0.70;0.70;;;7.10;99.90;;;;;;5015217;28;20534;-41
2023/11/07 01:05:39;;;;;;;0.65;0.65;;;7.10;99.90;;;;;;5012808;28;20033;-40
2023/11/07 01:08:05;;;;;;;0.70;0.70;;;7.10;99.90;;;;;;5024753;28;20025;-40
2023/11/07 01:10:32;;;;;;;0.70;0.70;;;7.10;99.90;;;;;;5030190;28;20079;-40
2023/11/07 01:12:59;;;;;;;0.70;0.70;;;7.10;99.90;;;;;;5026377;28;20429;-33
2023/11/07 01:15:25;;;;;;;0.60;0.60;;;7.20;99.90;;;;;;5023165;28;20031;-39
2023/11/07 01:17:52;;;;;;;0.70;0.70;;;7.10;99.90;;;;;;5024234;28;20036;-40
2023/11/07 01:20:17;;;;;;;0.60;0.60;;;7.10;99.90;;;;;;5023059;28;20454;-43
2023/11/07 01:22:44;;;;;;;0.75;0.70;;;7.10;99.90;;;;;;5026868;28;20053;-38
2023/11/07 01:25:10;;;;;;;0.65;0.65;;;7.10;99.90;;;;;;5019506;28;20105;-40
2023/11/07 01:27:36;;;;;;;0.70;0.70;;;7.10;99.90;;;;;;5029880;28;20566;-40
2023/11/07 01:30:04;;;;;;;0.80;0.80;;;7.10;99.90;;;;;;5028586;28;20036;-38
2023/11/07 01:32:31;;;;;;;0.60;0.60;;;7.00;99.90;;;;;;5026157;28;20669;-40
2023/11/07 01:34:57;;;;;;;0.68;0.68;;;7.00;99.90;;;;;;5028093;28;20437;-39
2023/11/07 01:37:23;;;;;;;0.75;0.75;;;6.90;99.90;;;;;;5031456;28;20041;-39
2023/11/07 01:39:49;;;;;;;0.70;0.70;;;6.80;99.90;;;;;;5030350;28;20480;-40
2023/11/07 01:42:14;;;;;;;0.60;0.60;;;6.80;99.90;;;;;;5033642;28;20197;-38
2023/11/07 01:44:52;;;;;;;1.27;0.70;;;6.70;99.90;;;;;;5024835;28;20104;-35
2023/11/07 01:47:21;;;;;;;0.60;0.60;;;6.70;99.90;;;;;;5025918;28;20022;-40
2023/11/07 01:49:47;;;;;;;0.70;0.70;;;6.70;99.90;;;;;;5027029;28;20037;-41
2023/11/07 01:52:16;;;;;;;0.90;0.90;;;6.70;99.90;;;;;;5022724;28;20026;-40
2023/11/07 01:54:44;;;;;;;0.63;0.63;;;6.60;99.90;;;;;;5027412;28;20037;-35
2023/11/07 01:57:11;;;;;;;0.70;0.70;;;6.60;99.90;;;;;;5031037;28;20029;-39
2023/11/07 01:59:38;;;;;;;1.10;0.80;;;6.50;99.90;;;;;;5023453;28;20083;-40
2023/11/07 02:02:09;;;;;;;0.70;0.70;;;6.60;99.90;;;;;;5026283;28;20040;-39
2023/11/07 02:04:35;;;;;;;1.35;0.70;;;6.50;99.90;;;;;;5027303;28;20091;-40
2023/11/07 02:07:00;;;;;;;0.60;0.60;;;6.50;99.90;;;;;;5026263;28;20212;-38
2023/11/07 02:09:26;;;;;;;0.63;0.63;;;6.50;99.90;;;;;;5018488;28;20030;-39
2023/11/07 02:11:52;;;;;;;0.75;0.75;;;6.50;99.90;;;;;;5025880;28;20807;-40
2023/11/07 02:14:35;;;;;;;0.70;0.70;;;6.50;99.90;;;;;;5028834;28;20288;-38
2023/11/07 02:17:01;;;;;;;0.60;0.60;;;6.60;99.90;;;;;;5025926;28;20096;-39
2023/11/07 02:19:27;;;;;;;0.70;0.70;;;6.50;99.90;;;;;;5028950;28;20444;-41
2023/11/07 02:21:57;;;;;;;0.70;0.70;;;6.50;99.90;;;;;;5030101;28;20029;-40
2023/11/07 02:24:23;;;;;;;0.68;0.68;;;6.40;99.90;;;;;;5033035;28;20029;-32
2023/11/07 02:26:54;;;;;;;20.45;13.68;;;6.40;99.90;;;;;;5005635;28;20517;-32
2023/11/07 02:29:21;;;;;;;7.60;6.18;;;6.30;99.90;;;;;;5024135;28;20032;-34
2023/11/07 02:31:47;;;;;;;4.50;4.10;;;6.30;99.90;;;;;;5028988;28;20083;-33
2023/11/07 02:34:12;;;;;;;4.13;3.72;;;6.30;99.90;;;;;;5028888;28;20033;-36
2023/11/07 02:36:39;;;;;;;3.38;2.67;;;6.20;99.90;;;;;;5022817;28;20349;-38
2023/11/07 02:39:07;;;;;;;4.03;2.40;;;6.20;99.90;;;;;;5026038;28;20018;-40
2023/11/07 02:41:33;;;;;;;1.23;1.20;;;6.20;99.90;;;;;;5027150;28;20053;-38
2023/11/07 02:43:59;;;;;;;1.20;1.20;;;6.20;99.90;;;;;;5021905;28;20029;-40
2023/11/07 02:46:25;;;;;;;1.70;1.33;;;6.20;99.90;;;;;;5021128;28;20468;-38
2023/11/07 02:48:50;;;;;;;1.60;1.50;;;6.20;99.90;;;;;;5023339;28;20037;-38
2023/11/07 02:51:17;;;;;;;1.17;1.17;;;6.20;99.90;;;;;;5019198;28;20112;-40
2023/11/07 02:53:44;;;;;;;1.52;1.40;;;6.10;99.90;;;;;;5029786;28;20055;-37
2023/11/07 02:56:11;;;;;;;1.20;1.17;;;6.00;99.90;;;;;;5021366;28;20083;-36
2023/11/07 02:58:36;;;;;;;1.85;1.75;;;6.00;99.90;;;;;;5015524;28;20026;-42
2023/11/07 03:01:02;;;;;;;1.38;1.17;;;6.00;99.90;;;;;;5024206;28;20037;-40
2023/11/07 03:03:28;;;;;;;2.22;0.95;;;6.00;99.90;;;;;;5028233;28;20467;-40
2023/11/07 03:05:54;;;;;;;0.93;0.93;;;6.00;99.90;;;;;;5025202;28;20029;-40
2023/11/07 03:08:20;;;;;;;0.90;0.90;;;5.90;99.90;;;;;;5026995;28;20227;-38
2023/11/07 03:10:46;;;;;;;0.93;0.80;;;5.90;99.90;;;;;;5029173;28;20033;-40
2023/11/07 03:13:13;;;;;;;1.65;0.80;;;5.90;99.90;;;;;;5028487;28;20057;-36
2023/11/07 03:15:39;;;;;;;0.93;0.93;;;5.80;99.90;;;;;;5025555;28;20112;-40
2023/11/07 03:18:05;;;;;;;0.93;0.93;;;5.90;99.90;;;;;;5025984;28;20052;-38
2023/11/07 03:20:32;;;;;;;1.13;1.00;;;5.90;99.90;;;;;;5028698;28;20648;-39
2023/11/07 03:22:58;;;;;;;0.90;0.90;;;5.90;99.90;;;;;;5025603;28;20021;-38
2023/11/07 03:25:25;;;;;;;0.80;0.80;;;5.90;99.90;;;;;;5018839;28;20067;-39
2023/11/07 03:27:51;;;;;;;0.80;0.80;;;5.90;99.90;;;;;;5025996;28;20029;-40
2023/11/07 03:30:17;;;;;;;0.80;0.80;;;5.80;99.90;;;;;;5024539;28;20144;-38
2023/11/07 03:32:43;;;;;;;0.80;0.80;;;5.80;99.90;;;;;;5019081;28;20041;-40
2023/11/07 03:35:09;;;;;;;0.85;0.85;;;5.80;99.90;;;;;;5025572;28;20052;-33
2023/11/07 03:37:34;;;;;;;0.70;0.70;;;5.70;99.90;;;;;;5027764;28;20021;-33
2023/11/07 03:40:00;;;;;;;0.90;0.90;;;5.70;99.90;;;;;;5024303;28;20033;-34
2023/11/07 03:42:26;;;;;;;0.70;0.70;;;5.70;99.90;;;;;;5020750;28;20420;-37
2023/11/07 03:44:51;;;;;;;0.70;0.70;;;5.70;99.90;;;;;;5020592;28;20112;-41
2023/11/07 03:47:17;;;;;;;0.70;0.70;;;5.80;99.90;;;;;;5022524;28;20022;-42
2023/11/07 03:49:43;;;;;;;0.73;0.73;;;5.70;99.90;;;;;;5023232;28;20084;-42
2023/11/07 03:52:10;;;;;;;0.70;0.70;;;5.80;99.90;;;;;;5023192;28;20025;-42
2023/11/07 03:54:36;;;;;;;0.70;0.70;;;5.70;99.90;;;;;;5027726;28;20038;-42
2023/11/07 03:57:03;;;;;;;0.70;0.70;;;5.70;99.90;;;;;;5031360;28;20037;-41
2023/11/07 03:59:29;;;;;;;0.82;0.82;;;5.70;99.90;;;;;;5020505;28;20025;-42
2023/11/07 04:01:55;;;;;;;0.88;0.88;;;5.70;99.90;;;;;;5022841;28;20053;-42
2023/11/07 04:04:21;;;;;;;1.73;1.63;;;5.70;99.90;;;;;;5003243;28;20086;-42
2023/11/07 04:06:48;;;;;;;1.98;1.40;;;5.70;99.90;;;;;;5024860;28;20021;-41
2023/11/07 04:09:14;;;;;;;3.50;2.38;;;5.70;99.90;;;;;;5028393;28;20131;-40
2023/11/07 04:11:40;;;;;;;2.10;1.90;;;5.60;99.90;;;;;;5030063;28;20125;-42
2023/11/07 04:14:05;;;;;;;1.70;1.60;;;5.50;99.90;;;;;;5026715;28;20525;-39
2023/11/07 04:16:32;;;;;;;1.83;1.10;;;5.50;99.90;;;;;;5028981;28;20021;-41
2023/11/07 04:18:59;;;;;;;1.10;1.00;;;5.50;99.90;;;;;;5022025;28;20017;-41
2023/11/07 04:21:24;;;;;;;0.98;0.90;;;5.50;99.90;;;;;;5011825;28;20402;-42
2023/11/07 04:23:50;;;;;;;0.80;0.80;;;5.50;99.90;;;;;;5024874;28;20033;-36
2023/11/07 04:26:17;;;;;;;1.15;0.80;;;5.50;99.90;;;;;;5032658;28;20040;-42
2023/11/07 04:28:43;;;;;;;0.90;0.90;;;5.50;99.90;;;;;;5020377;28;20123;-42
2023/11/07 04:31:09;;;;;;;1.52;1.00;;;5.50;99.90;;;;;;5023954;28;20311;-41
2023/11/07 04:33:36;;;;;;;0.80;0.80;;;5.50;99.90;;;;;;5026429;28;20143;-41
2023/11/07 04:36:01;;;;;;;0.90;0.90;;;5.50;99.90;;;;;;5030840;28;20686;-41
2023/11/07 04:38:30;;;;;;;1.98;1.00;;;5.50;99.90;;;;;;5032140;28;20032;-41
2023/11/07 04:40:55;;;;;;;1.35;0.95;;;5.50;99.90;;;;;;5027125;28;20753;-43
2023/11/07 04:43:22;;;;;;;1.00;0.80;;;5.60;99.90;;;;;;5027188;28;20038;-34
2023/11/07 04:45:48;;;;;;;0.80;0.80;;;5.60;99.90;;;;;;5021548;28;20041;-33
2023/11/07 04:48:13;;;;;;;0.90;0.90;;;5.70;99.90;;;;;;5027325;28;22453;-33
2023/11/07 04:50:39;;;;;;;0.93;0.93;;;5.60;99.90;;;;;;5028418;28;20037;-33
2023/11/07 04:53:08;;;;;;;1.83;1.00;;;5.70;99.90;;;;;;5024308;28;20105;-39
2023/11/07 04:55:34;;;;;;;1.45;0.90;;;5.60;99.90;;;;;;5020722;28;20474;-31
2023/11/07 04:58:01;;;;;;;1.20;1.00;;;5.50;99.90;;;;;;5024422;28;20017;-31
2023/11/07 05:00:27;;;;;;;1.00;0.90;;;5.50;99.90;;;;;;5024842;28;20028;-32
2023/11/07 05:02:52;;;;;;;0.80;0.80;;;5.50;99.90;;;;;;5022606;28;20041;-31
2023/11/07 05:05:18;;;;;;;1.48;0.90;;;5.50;99.90;;;;;;5026779;28;20076;-31
2023/11/07 05:07:45;;;;;;;1.00;0.82;;;5.40;99.90;;;;;;5025087;28;20025;-31
2023/11/07 05:10:12;;;;;;;1.83;1.20;;;5.40;99.90;;;;;;5031791;28;20074;-33
2023/11/07 05:12:38;;;;;;;2.00;1.40;;;5.40;99.90;;;;;;5022002;28;20021;-30
2023/11/07 05:15:05;;;;;;;0.85;0.85;;;5.40;99.90;;;;;;5027514;28;20032;-31
2023/11/07 05:17:32;;;;;;;1.10;1.10;;;5.40;99.90;;;;;;5024372;28;20114;-29
2023/11/07 05:19:57;;;;;;;1.80;1.02;;;5.40;99.90;;;;;;5038013;28;20394;-30
2023/11/07 05:22:24;;;;;;;2.22;1.73;;;5.40;99.90;;;;;;5024687;28;20029;-31
2023/11/07 05:24:51;;;;;;;1.45;1.30;;;5.40;99.90;;;;;;5035323;28;20021;-30
2023/11/07 05:27:20;;;;;;;1.15;1.15;;;5.30;99.90;;;;;;5027699;28;20036;-31
2023/11/07 05:29:47;;;;;;;1.45;1.30;;;5.30;99.90;;;;;;5024836;28;20476;-31
2023/11/07 05:32:13;;;;;;;3.35;1.52;;;5.40;99.90;;;;;;5026784;28;20112;-31
2023/11/07 05:34:39;;;;;;;6.18;1.73;;;5.40;99.90;;;;;;5021379;28;20373;-29
2023/11/07 05:37:06;;;;;;;4.07;1.40;;;5.40;99.90;;;;;;5029475;28;20029;-29
2023/11/07 05:39:32;;;;;;;1.52;1.42;;;5.40;99.90;;;;;;5024545;28;20403;-33
2023/11/07 05:41:58;;;;;;;1.23;1.23;;;5.40;99.90;;;;;;5024940;28;20503;-30
2023/11/07 05:44:24;;;;;;;1.50;1.40;;;5.40;99.90;;;;;;5043313;22;20022;-70
2023/11/07 05:46:51;;;;;;;2.85;1.60;;;5.20;99.90;;;;;;5023630;28;20037;-72
2023/11/07 05:49:50;;;;;;;2.78;1.35;;;5.30;99.90;;;;;;5028579;28;20041;-74
2023/11/07 05:52:14;;;;;;;1.65;1.55;;;5.30;99.90;;;;;;5032861;28;20026;-72
2023/11/07 05:54:39;;;;;;;1.52;1.40;;;5.20;99.90;;;;;;5039273;28;20028;-73
2023/11/07 05:57:05;;;;;;;1.42;1.33;;;5.20;99.90;;;;;;5028270;28;20037;-72
2023/11/07 05:59:31;;;;;;;3.75;1.50;;;5.30;99.90;;;;;;5030098;28;20025;-73
2023/11/07 06:01:56;;;;;;;1.98;1.60;;;5.30;99.90;;;;;;5024363;28;20046;-73
2023/11/07 06:04:34;;;;;;;1.65;1.30;;;5.30;99.90;;;;;;5028440;28;20034;-73
2023/11/07 06:07:03;;;;;;;1.60;1.50;;;5.30;99.90;;;;;;5031151;28;20053;-72
2023/11/07 06:09:39;;;;;;;2.40;1.55;;;5.20;99.90;;;;;;5024428;28;20056;-73
2023/11/07 06:12:11;;;;;;;1.50;1.42;;;5.10;99.90;;;;;;5030165;28;20025;-73
2023/11/07 06:14:37;;;;;;;1.95;1.85;;;5.10;99.90;;;;;;5031919;28;20083;-72
2023/11/07 06:20:21;;;;;;;2.28;1.95;;;5.20;99.90;;;;;;5015674;28;20034;-72
2023/11/07 06:22:47;;;;;;;4.78;2.03;;;5.20;99.90;;;;;;5030585;28;20022;-73
2023/11/07 06:25:53;;;;;;;2.42;1.90;;;5.10;99.90;;;;;;5035779;28;20040;-73
2023/11/07 06:32:20;;;;;;;3.28;1.60;;;5.20;99.90;;;;;;5017353;28;20041;-73
2023/11/07 06:35:14;;;;;;;2.35;1.80;;;5.20;99.90;;;;;;5028228;28;20033;-73
2023/11/07 06:37:40;;;;;;;1.63;1.52;;;5.20;99.90;;;;;;5026242;28;20499;-72
2023/11/07 06:40:14;;;;;;;8.73;1.88;;;5.20;99.90;;;;;;5029710;28;20076;-71
2023/11/07 06:42:49;;;;;;;2.33;1.63;;;5.20;99.90;;;;;;5028457;28;20037;-73
2023/11/07 06:45:14;;;;;;;8.75;2.10;;;5.10;99.90;;;;;;5042845;28;20158;-72
2023/11/07 06:47:42;;;;;;;1.30;1.20;;;5.20;99.90;;;;;;5030682;28;20032;-71
2023/11/07 06:50:09;;;;;;;1.40;1.30;;;5.10;99.90;;;;;;5031209;28;20022;-72
2023/11/07 06:52:40;;;;;;;2.63;1.63;;;5.20;99.90;;;;;;5027221;28;20068;-72
2023/11/07 06:55:06;;;;;;;1.00;1.00;;;5.10;99.90;;;;;;5027410;28;20026;-72
2023/11/07 06:57:36;;;;;;;1.02;1.00;;;5.00;99.90;;;;;;5028607;28;20044;-72
2023/11/07 07:00:06;;;;;;;2.13;1.52;;;4.90;99.90;;;;;;5025253;28;20033;-72
2023/11/07 07:02:35;;;;;;;2.50;1.40;;;4.90;99.90;;;;;;5038109;28;20103;-73
2023/11/07 07:05:03;;;;;;;3.20;1.60;;;5.00;99.90;;;;;;5027110;28;20556;-72
2023/11/07 07:07:29;;;;;;;1.98;1.48;;;5.00;99.90;;;;;;5018318;28;20021;-72
2023/11/07 07:09:55;;;;;;;3.15;1.65;;;5.20;99.90;;;;;;5025709;28;20342;-72
2023/11/07 07:12:21;;;;;;;4.10;1.90;;;5.20;99.90;;;;;;5027193;28;20041;-73
2023/11/07 07:14:48;;;;;;;2.42;1.33;;;5.20;99.90;;;;;;5029214;28;20033;-73
2023/11/07 07:17:16;;;;;;;2.15;1.50;;;5.30;99.90;;;;;;5029263;28;20525;-71
2023/11/07 07:19:42;;;;;;;2.10;2.00;;;5.30;99.90;;;;;;5027604;28;20021;-71
2023/11/07 07:22:08;;;;;;;2.22;2.03;;;5.30;99.90;;;;;;5029156;28;20061;-73
2023/11/07 07:24:35;;;;;;;1.50;1.40;;;5.40;99.90;;;;;;5021523;28;20036;-74
2023/11/07 07:27:00;;;;;;;2.00;1.38;;;5.40;99.90;;;;;;5025565;28;20833;-73
2023/11/07 07:29:26;;;;;;;1.85;1.45;;;5.40;99.90;;;;;;5027439;28;20044;-72
2023/11/07 07:31:53;;;;;;;4.22;1.50;;;5.40;99.90;;;;;;5028702;28;20450;-73
2023/11/07 07:34:22;;;;;;;3.35;1.70;;;5.40;99.90;;;;;;5027668;28;20064;-72
2023/11/07 07:36:47;;;;;;;;;;;5.50;99.90;;;;;;5027119;28;20069;-72
2023/11/07 07:39:27;;;;;;;1.75;1.50;;;5.50;99.90;;;;;;5029731;28;20333;-73
2023/11/07 07:41:58;;;;;;;3.13;1.30;;;5.70;99.90;;;;;;5027808;28;20029;-73
2023/11/07 07:44:27;;;;;;;1.13;1.13;;;5.90;99.90;;;;;;5023424;28;20168;-72
2023/11/07 07:46:54;;;;;;;1.10;1.10;;;6.00;99.90;;;;;;5024982;28;20463;-73
2023/11/07 07:49:23;;;;;;;1.50;1.30;;;6.20;99.90;;;;;;5023136;28;20022;-73
2023/11/07 07:51:52;;;;;;;1.17;1.00;;;6.40;99.90;;;;;;5031011;28;20064;-73
2023/11/07 07:54:22;;;;;;;1.63;1.30;;;6.50;99.90;;;;;;5040024;28;20079;-73
2023/11/07 07:56:51;;;;;;;1.10;1.10;;;6.60;99.90;;;;;;5018577;28;20372;-72
2023/11/07 07:59:23;;;;;;;1.33;1.23;;;6.70;99.90;;;;;;5024745;28;20030;-73
2023/11/07 08:02:06;;;;;;;1.85;1.20;;;6.80;99.90;;;;;;5021967;28;20046;-74
2023/11/07 08:04:32;;;;;;;1.65;1.20;;;6.90;99.90;;;;;;5029002;28;20059;-73
2023/11/07 08:07:01;;;;;;;1.48;1.38;;;7.00;99.90;;;;;;5025353;28;20116;-74
2023/11/07 08:09:28;;;;;;;1.40;1.30;;;7.10;99.90;;;;;;5028359;28;20034;-74
2023/11/07 08:11:56;;;;;;;3.47;1.10;;;7.20;99.90;;;;;;5018595;28;20026;-73
2023/11/07 08:14:23;;;;;;;1.40;1.30;;;7.20;99.90;;;;;;5016334;28;20036;-73
2023/11/07 08:16:51;;;;;;;1.92;1.20;;;7.30;99.90;;;;;;5017349;28;20262;-73
2023/11/07 08:19:17;;;;;;;1.40;1.30;;;7.20;99.90;;;;;;5022579;28;20433;-72
2023/11/07 08:21:43;;;;;;;1.30;1.20;;;7.30;99.90;;;;;;5023128;28;20036;-72
2023/11/07 08:24:12;;;;;;;1.23;1.13;;;7.30;99.90;;;;;;5023470;28;20018;-73
2023/11/07 08:26:37;;;;;;;;;;;7.40;99.90;;;;;;5023932;28;20026;-73
2023/11/07 08:29:07;;;;;;;2.15;1.42;;;7.40;99.90;;;;;;5022939;28;20419;-74
2023/11/07 08:31:33;;;;;;;1.45;1.33;;;7.40;99.90;;;;;;5023722;28;20050;-73
2023/11/07 08:34:16;;;;;;;1.20;1.20;;;7.40;99.90;;;;;;5023093;28;20036;-73
2023/11/07 08:37:10;;;;;;;2.33;1.40;;;7.50;99.90;;;;;;5027037;28;20037;-73
2023/11/07 08:43:36;;;;;;;1.10;1.10;;;7.70;99.90;;;;;;5006870;28;20391;-71
2023/11/07 08:46:02;;;;;;;1.35;1.10;;;7.90;99.90;;;;;;4988508;28;20042;-73
2023/11/07 08:48:28;;;;;;;1.10;1.10;;;8.10;99.90;;;;;;4988540;28;20042;-72
2023/11/07 08:50:54;;;;;;;1.27;1.10;;;8.20;99.90;;;;;;4990806;28;20045;-73
2023/11/07 08:53:20;;;;;;;1.17;1.02;;;8.30;99.90;;;;;;4991289;28;20069;-72
2023/11/07 08:55:49;;;;;;;2.45;1.13;;;8.30;99.90;;;;;;4990901;28;20043;-73
2023/11/07 08:58:19;;;;;;;2.08;1.17;;;8.40;99.90;;;;;;4992372;28;20015;-72
2023/11/07 09:00:45;;;;;;;0.80;0.80;;;8.40;99.90;;;;;;4988834;28;20030;-73
2023/11/07 09:03:11;;;;;;;1.10;1.10;;;8.50;99.90;;;;;;5007425;28;20018;-72
2023/11/07 09:05:40;;;;;;;1.00;1.00;;;8.50;99.90;;;;;;4994711;28;20015;-73
2023/11/07 09:08:06;;;;;;;0.90;0.90;;;8.60;99.90;;;;;;4989462;28;20102;-73
2023/11/07 09:10:32;;;;;;;1.17;1.08;;;8.60;99.90;;;;;;4992956;28;20070;-73
2023/11/07 09:12:58;;;;;;;1.33;1.10;;;8.60;99.90;;;;;;4996113;28;20042;-73
2023/11/07 09:15:25;;;;;;;1.60;1.05;;;8.60;99.90;;;;;;4994660;28;20031;-72
2023/11/07 09:17:51;;;;;;;1.67;1.20;;;8.60;99.90;;;;;;4995292;28;20495;-73
2023/11/07 09:20:18;;;;;;;2.47;1.13;;;8.80;99.90;;;;;;4994941;28;20037;-72
2023/11/07 09:22:46;;;;;;;1.20;1.10;;;8.80;99.90;;;;;;4995847;28;20018;-73
2023/11/07 09:25:12;;;;;;;1.00;1.00;;;8.90;99.90;;;;;;4993732;28;20027;-72
2023/11/07 09:27:38;;;;;;;3.17;1.10;;;8.90;99.90;;;;;;4994445;28;20512;-72
2023/11/07 09:30:11;;;;;;;1.00;0.80;;;9.00;99.90;;;;;;4989374;28;20030;-72
2023/11/07 09:32:42;;;;;;;1.17;1.00;;;9.10;99.90;;;;;;4990690;28;20034;-73
2023/11/07 09:35:08;;;;;;;1.58;1.13;;;9.20;99.90;;;;;;4991280;28;20039;-72
2023/11/07 09:37:40;;;;;;;2.67;1.05;;;9.20;99.90;;;;;;4994577;28;20041;-73
2023/11/07 09:40:09;;;;;;;2.47;0.85;;;9.20;99.90;;;;;;5010744;28;20037;-72
2023/11/07 09:42:35;;;;;;;;;;;9.10;99.90;;;;;;4990233;28;20083;-74
2023/11/07 09:45:09;;;;;;;1.20;1.00;;;9.10;99.90;;;;;;5007013;28;20400;-74
2023/11/07 09:47:35;;;;;;;0.93;0.93;;;9.00;99.90;;;;;;5027863;28;20056;-72
2023/11/07 09:50:04;;;;;;;0.90;0.90;;;9.00;99.90;;;;;;5023793;28;20657;-73
2023/11/07 09:52:31;;;;;;;1.08;1.00;;;9.00;99.90;;;;;;5030268;28;20029;-73
2023/11/07 09:55:00;;;;;;;1.10;0.93;;;9.00;99.90;;;;;;5030009;28;20014;-72
2023/11/07 09:57:27;;;;;;;1.58;1.10;;;9.00;99.90;;;;;;5033924;28;20033;-72
2023/11/07 09:59:53;;;;;;;0.82;0.80;;;9.00;99.90;;;;;;5030246;28;20018;-73
2023/11/07 10:02:21;;;;;;;0.90;0.90;;;9.10;99.90;;;;;;5030794;28;20495;-73
2023/11/07 10:04:48;;;;;;;0.80;0.80;;;9.10;99.90;;;;;;5030843;28;20458;-73
2023/11/07 10:07:14;;;;;;;1.05;0.90;;;9.10;99.90;;;;;;5024504;28;20485;-73
2023/11/07 10:09:40;;;;;;;1.42;0.90;;;9.20;99.90;;;;;;5030107;28;20029;-72
2023/11/07 10:12:16;;;;;;;1.13;1.02;;;9.30;99.90;;;;;;5029968;28;20052;-72
2023/11/07 10:14:41;;;;;;;1.67;1.10;;;9.40;99.90;;;;;;5024483;28;20018;-72
2023/11/07 10:17:19;;;;;;;0.93;0.93;;;9.50;99.90;;;;;;5029131;28;20022;-73
2023/11/07 10:19:46;;;;;;;0.95;0.95;;;9.50;99.90;;;;;;5028463;28;20026;-72
2023/11/07 10:22:15;;;;;;;1.27;0.88;;;9.70;99.90;;;;;;5026511;28;20053;-73
2023/11/07 10:24:44;;;;;;;0.90;0.90;;;9.70;99.90;;;;;;5027880;28;20785;-72
2023/11/07 10:27:11;;;;;;;0.73;0.70;;;9.80;99.90;;;;;;5020686;28;20764;-72
2023/11/07 10:29:52;;;;;;;1.17;1.10;;;9.80;99.90;;;;;;5046089;28;20033;-73
2023/11/07 10:32:20;;;;;;;1.02;0.90;;;9.70;99.90;;;;;;5022145;28;20038;-73
2023/11/07 10:35:00;;;;;;;2.40;0.90;;;9.70;99.90;;;;;;5026606;28;20201;-73
2023/11/07 10:37:36;;;;;;;0.90;0.90;;;9.70;99.90;;;;;;5027547;28;20112;-74
2023/11/07 10:40:02;;;;;;;1.23;1.13;;;9.70;99.90;;;;;;5023318;28;20657;-73
2023/11/07 10:42:29;;;;;;;1.17;0.88;;;9.70;99.90;;;;;;5026155;28;20028;-73
2023/11/07 10:45:01;;;;;;;6.50;1.00;;;9.70;99.90;;;;;;5028815;28;20048;-73
2023/11/07 10:47:35;;;;;;;1.17;1.08;;;9.70;99.90;;;;;;5031679;28;20075;-72
2023/11/07 10:50:03;;;;;;;1.00;1.00;;;9.70;99.90;;;;;;5024560;28;20113;-74
2023/11/07 10:52:28;;;;;;;1.08;1.08;;;9.70;99.90;;;;;;5022768;28;20609;-72
2023/11/07 10:54:54;;;;;;;1.58;1.05;;;9.80;99.90;;;;;;5025194;28;20033;-73
2023/11/07 10:57:25;;;;;;;1.10;0.80;;;9.80;99.90;;;;;;5039110;28;20030;-73
2023/11/07 11:00:03;;;;;;;0.85;0.85;;;10.00;99.90;;;;;;5022329;28;20516;-73
2023/11/07 11:02:29;;;;;;;1.00;0.70;;;10.20;99.90;;;;;;5026436;28;20038;-71
2023/11/07 11:05:01;;;;;;;1.90;0.93;;;10.40;99.90;;;;;;5021525;28;21104;-71
2023/11/07 11:07:29;;;;;;;1.13;0.80;;;10.50;99.90;;;;;;5026142;28;20095;-70
2023/11/07 11:09:57;;;;;;;0.70;0.70;;;10.70;99.90;;;;;;5021884;28;20048;-70
2023/11/07 11:12:25;;;;;;;4.18;0.82;;;11.00;99.90;;;;;;5028187;28;20434;-70
2023/11/07 11:14:52;;;;;;;0.50;0.50;;;10.90;99.90;;;;;;5023664;28;22037;-70
2023/11/07 11:17:38;;;;;;;0.68;0.60;;;10.90;99.90;;;;;;5026946;28;20044;-70
2023/11/07 11:20:22;;;;;;;0.60;0.60;;;10.90;99.90;;;;;;5027727;28;20107;-71
2023/11/07 11:23:40;;;;;;;0.90;0.65;;;11.00;99.90;;;;;;5039363;28;20057;-71
2023/11/07 11:26:20;;;;;;;0.85;0.80;;;11.00;99.90;;;;;;4928794;28;20049;-70
2023/11/07 11:28:48;;;;;;;0.60;0.60;;;11.00;99.90;;;;;;5019266;28;20037;-70
2023/11/07 11:31:18;;;;;;;0.50;0.50;;;11.10;99.90;;;;;;5024774;28;20045;-71
2023/11/07 11:33:45;;;;;;;18.52;1.27;;;11.20;99.90;;;;;;5027818;28;20487;-70
2023/11/07 11:36:43;;;;;;;0.55;0.55;;;11.10;99.90;;;;;;5026858;28;20490;-69
2023/11/07 11:39:31;;;;;;;3.63;0.70;;;10.90;99.90;;;;;;5024803;28;20025;-69
2023/11/07 11:41:58;;;;;;;0.95;0.73;;;10.60;99.90;;;;;;5035400;28;20446;-72
2023/11/07 11:44:27;;;;;;;0.80;0.80;;;10.50;99.90;;;;;;5025613;28;20034;-70
2023/11/07 11:46:55;;;;;;;0.60;0.60;;;10.50;99.90;;;;;;5021259;28;20495;-72
2023/11/07 11:49:23;;;;;;;0.90;0.90;;;10.50;99.90;;;;;;5019735;28;20029;-68
2023/11/07 11:51:51;;;;;;;1.23;0.68;;;10.50;99.90;;;;;;5025310;28;20034;-71
2023/11/07 11:54:23;;;;;;;1.45;1.15;;;10.40;99.90;;;;;;5028835;28;20034;-70
2023/11/07 11:56:48;;;;;;;0.70;0.70;;;10.40;99.90;;;;;;5025814;28;20034;-70
2023/11/07 11:59:16;;;;;;;1.27;0.93;;;10.30;99.90;;;;;;5028394;28;20083;-72
2023/11/07 12:01:58;;;;;;;0.60;0.60;;;10.30;99.90;;;;;;5024819;28;20035;-72
2023/11/07 12:04:36;;;;;;;0.73;0.70;;;10.30;99.90;;;;;;5025563;28;20025;-70
2023/11/07 12:07:14;;;;;;;0.63;0.63;;;10.30;99.90;;;;;;5026220;28;20029;-69
2023/11/07 12:09:47;;;;;;;0.60;0.60;;;10.30;99.90;;;;;;5026672;28;20108;-70
2023/11/07 12:12:14;;;;;;;1.77;0.93;;;10.50;99.90;;;;;;5027154;28;20038;-72
2023/11/07 12:15:02;;;;;;;0.70;0.70;;;10.80;99.90;;;;;;5029412;28;20072;-72
2023/11/07 12:17:42;;;;;;;0.70;0.70;;;11.10;99.90;;;;;;5026568;28;20101;-71
2023/11/07 12:20:11;;;;;;;0.82;0.82;;;11.40;99.90;;;;;;5022543;28;20557;-74
2023/11/07 12:22:41;;;;;;;0.70;0.70;;;11.40;99.90;;;;;;5022203;28;20095;-72
2023/11/07 12:25:17;;;;;;;0.50;0.50;;;11.40;99.90;;;;;;5032438;28;20473;-72
2023/11/07 12:28:02;;;;;;;0.85;0.70;;;11.50;99.90;;;;;;5031465;28;20514;-71
2023/11/07 12:30:28;;;;;;;1.05;0.60;;;11.50;99.90;;;;;;5032019;28;20034;-72
2023/11/07 12:32:59;;;;;;;0.52;0.52;;;11.40;99.90;;;;;;5028744;28;20038;-70
2023/11/07 12:35:27;;;;;;;0.70;0.70;;;11.30;99.90;;;;;;5030092;28;20077;-71
2023/11/07 12:37:54;;;;;;;0.63;0.63;;;11.10;99.90;;;;;;5029107;28;20514;-72
2023/11/07 12:40:20;;;;;;;0.85;0.85;;;11.10;99.90;;;;;;5026036;28;20406;-71
2023/11/07 12:42:56;;;;;;;1.15;0.85;;;10.90;99.90;;;;;;5027204;28;20029;-71
2023/11/07 12:45:26;;;;;;;0.70;0.70;;;10.80;99.90;;;;;;5031156;28;20560;-71
2023/11/07 12:48:05;;;;;;;0.73;0.68;;;10.80;99.90;;;;;;5016803;28;20180;-72
2023/11/07 12:50:36;;;;;;;1.45;0.80;;;10.80;99.90;;;;;;5026127;28;20394;-71
2023/11/07 12:53:04;;;;;;;0.68;0.68;;;10.80;99.90;;;;;;5029616;28;20516;-72
2023/11/07 12:55:31;;;;;;;1.13;1.00;;;10.90;99.90;;;;;;5028610;28;20026;-70
2023/11/07 12:57:57;;;;;;;0.90;0.80;;;10.90;99.90;;;;;;5028179;28;20032;-70
2023/11/07 13:00:25;;;;;;;1.92;1.10;;;10.90;99.90;;;;;;5028517;28;20018;-70
2023/11/07 13:03:00;;;;;;;0.70;0.70;;;10.90;99.90;;;;;;5028275;28;20049;-69
2023/11/07 13:05:26;;;;;;;0.80;0.80;;;10.90;99.90;;;;;;5029539;28;20034;-69
2023/11/07 13:07:53;;;;;;;0.60;0.60;;;10.90;99.90;;;;;;5028811;28;20151;-71
2023/11/07 13:10:20;;;;;;;1.98;0.80;;;11.10;99.90;;;;;;5030114;28;20079;-71
2023/11/07 13:12:48;;;;;;;0.83;0.80;;;11.20;99.90;;;;;;5021465;28;20029;-70
2023/11/07 13:15:14;;;;;;;0.93;0.93;;;11.20;99.90;;;;;;5025408;28;20467;-71